Time;durP1;ratioP1;P1;durP2;ratioP2;P2;SDS_P1;SDS_P2;PMS_P1;PMS_P2;Temp;Humidity;BMP_temperature;BMP_pressure;BME280_temperature;BME280_humidity;BME280_pressure;Samples;Min_cycle;Max_cycle;Signal;HPM_P1;HPM_P2
2023/03/21 05:22:39;;;;;;;6.90;3.53;;;;;;;6.80;100.00;100361.75;5109818;27;20388;-67
2023/03/21 05:25:08;;;;;;;9.73;4.95;;;;;;;6.85;100.00;100365.78;5108582;28;20060;-67
2023/03/21 05:28:01;;;;;;;5.70;3.05;;;;;;;6.86;100.00;100367.44;5108258;28;20031;-67
2023/03/21 05:30:29;;;;;;;12.23;4.00;;;;;;;6.82;100.00;100358.94;5108807;28;20028;-67
2023/03/21 05:32:58;;;;;;;9.23;4.05;;;;;;;6.84;100.00;100358.81;5108392;28;20135;-67
2023/03/21 05:35:24;;;;;;;6.88;3.88;;;;;;;6.78;100.00;100360.22;5108319;28;20059;-67
2023/03/21 05:37:49;;;;;;;8.95;3.67;;;;;;;6.86;100.00;100359.50;5107969;28;20036;-67
2023/03/21 05:40:15;;;;;;;4.22;2.55;;;;;;;6.76;100.00;100355.06;5108167;28;20039;-67
2023/03/21 05:42:43;;;;;;;5.13;3.13;;;;;;;6.69;100.00;100367.22;5109473;28;20097;-67
2023/03/21 05:45:21;;;;;;;5.85;2.78;;;;;;;6.77;100.00;100369.13;5108384;28;20044;-67
2023/03/21 05:47:48;;;;;;;5.13;3.70;;;;;;;6.76;100.00;100370.13;5106442;28;20036;-67
2023/03/21 05:50:15;;;;;;;4.72;3.08;;;;;;;6.77;100.00;100367.31;5107942;28;20039;-67
2023/03/21 05:52:44;;;;;;;4.20;3.15;;;;;;;6.69;100.00;100371.69;5107843;28;20032;-67
2023/03/21 05:55:13;;;;;;;5.93;2.75;;;;;;;6.61;100.00;100368.94;5107928;28;20036;-68
2023/03/21 05:57:39;;;;;;;6.57;3.90;;;;;;;6.62;100.00;100370.59;5107558;28;20031;-68
2023/03/21 06:00:09;;;;;;;4.78;2.92;;;;;;;6.59;100.00;100363.78;5107812;28;20039;-68
2023/03/21 06:02:58;;;;;;;4.10;2.67;;;;;;;6.58;100.00;100372.69;5107836;28;20741;-69
2023/03/21 06:05:35;;;;;;;6.03;3.03;;;;;;;6.60;100.00;100372.56;5107859;28;20141;-69
2023/03/21 06:08:01;;;;;;;9.13;4.68;;;;;;;6.68;100.00;100365.56;5107393;28;20121;-69
2023/03/21 06:10:26;;;;;;;7.90;3.60;;;;;;;6.73;100.00;100368.63;5107763;28;20080;-70
2023/03/21 06:12:52;;;;;;;5.22;3.03;;;;;;;6.80;100.00;100374.16;5107646;28;20518;-69
2023/03/21 06:15:35;;;;;;;6.75;3.53;;;;;;;6.86;100.00;100383.34;5108767;28;20036;-69
2023/03/21 06:18:11;;;;;;;5.35;3.63;;;;;;;6.95;100.00;100387.75;5106636;28;20484;-69
2023/03/21 06:20:39;;;;;;;4.65;2.83;;;;;;;6.99;100.00;100386.50;5107390;28;20063;-70
2023/03/21 06:23:09;;;;;;;5.75;2.75;;;;;;;7.05;100.00;100399.16;5107383;28;20074;-67
2023/03/21 06:25:34;;;;;;;3.90;3.13;;;;;;;7.20;100.00;100392.38;5106578;28;20059;-66
2023/03/21 06:28:00;;;;;;;3.53;2.30;;;;;;;7.35;100.00;100396.16;5106517;28;20036;-67
2023/03/21 06:30:26;;;;;;;4.25;2.40;;;;;;;7.55;100.00;100398.69;5107239;28;20031;-67
2023/03/21 06:33:12;;;;;;;4.10;2.55;;;;;;;7.70;100.00;100394.56;5097807;28;20040;-68
2023/03/21 06:35:37;;;;;;;2.65;2.08;;;;;;;7.76;100.00;100393.97;5093570;28;20097;-71
2023/03/21 06:38:03;;;;;;;3.15;2.17;;;;;;;7.86;100.00;100394.69;5093445;28;20058;-68
2023/03/21 06:40:31;;;;;;;4.32;2.45;;;;;;;7.94;100.00;100396.59;5094380;28;20036;-67
2023/03/21 06:42:56;;;;;;;3.25;2.63;;;;;;;7.99;100.00;100404.09;5093501;28;20487;-68
2023/03/21 06:45:24;;;;;;;7.28;2.25;;;;;;;7.92;100.00;100400.38;5077013;28;20096;-68
2023/03/21 06:47:49;;;;;;;3.57;2.33;;;;;;;7.97;100.00;100400.78;5094816;28;20062;-58
2023/03/21 06:50:28;;;;;;;2.83;2.15;;;;;;;7.96;100.00;100401.75;5093623;28;20081;-60
2023/03/21 06:52:53;;;;;;;3.03;1.90;;;;;;;8.15;100.00;100401.59;5093427;28;20028;-59
2023/03/21 06:55:24;;;;;;;3.10;1.83;;;;;;;8.15;100.00;100398.94;5093629;28;20116;-60
2023/03/21 06:57:52;;;;;;;3.42;2.53;;;;;;;8.19;100.00;100399.44;5093246;28;20191;-59
2023/03/21 07:00:18;;;;;;;3.70;1.80;;;;;;;8.37;100.00;100393.16;5093223;28;20058;-59
2023/03/21 07:02:46;;;;;;;3.75;1.92;;;;;;;8.42;97.99;100390.88;5093211;28;20500;-68
2023/03/21 07:05:15;;;;;;;1.77;1.67;;;;;;;8.33;97.53;100397.06;5093088;28;20492;-68
2023/03/21 07:07:42;;;;;;;4.03;2.22;;;;;;;8.28;96.26;100390.56;5093161;28;20495;-68
2023/03/21 07:10:08;;;;;;;5.07;2.13;;;;;;;8.34;97.19;100392.59;5093527;28;20040;-69
2023/03/21 07:12:43;;;;;;;3.38;1.75;;;;;;;8.51;97.38;100397.06;5093044;28;20031;-69
2023/03/21 07:15:36;;;;;;;3.13;2.03;;;;;;;8.72;96.56;100391.38;5086703;28;20079;-67
2023/03/21 07:18:04;;;;;;;5.80;1.90;;;;;;;8.79;94.18;100388.91;5082954;28;20584;-69
2023/03/21 07:20:31;;;;;;;5.68;2.38;;;;;;;8.79;93.57;100376.47;5082780;28;20040;-68
2023/03/21 07:22:58;;;;;;;2.38;1.80;;;;;;;8.93;91.20;100372.38;5082612;28;20043;-67
2023/03/21 07:25:26;;;;;;;;;;;;;;;9.06;90.47;100369.28;5082690;28;20055;-67
2023/03/21 07:27:52;;;;;;;4.60;2.08;;;;;;;9.17;89.22;100369.00;5082706;28;20301;-67
2023/03/21 07:30:17;;;;;;;2.55;1.85;;;;;;;9.24;88.49;100364.69;5082180;28;20050;-68
2023/03/21 07:32:44;;;;;;;3.03;1.85;;;;;;;9.44;88.29;100363.41;5092567;28;20131;-72
2023/03/21 07:35:12;;;;;;;2.08;1.63;;;;;;;9.59;87.27;100360.13;5072397;28;20040;-68
2023/03/21 07:37:39;;;;;;;2.38;1.70;;;;;;;9.72;85.43;100358.66;5089821;28;20036;-69
2023/03/21 07:40:09;;;;;;;2.33;1.58;;;;;;;9.72;84.04;100358.66;5092432;28;20523;-71
2023/03/21 07:42:37;;;;;;;2.38;1.40;;;;;;;10.06;86.25;100373.63;5092441;28;20040;-70
2023/03/21 07:45:03;;;;;;;1.93;1.37;;;;;;;10.11;86.06;100367.81;5091279;28;20032;-68
2023/03/21 07:47:32;;;;;;;2.92;1.80;;;;;;;10.19;86.13;100359.81;5091945;28;20063;-68
2023/03/21 07:49:58;;;;;;;2.85;1.80;;;;;;;10.21;84.35;100347.16;5084474;28;20037;-70
2023/03/21 07:52:24;;;;;;;3.22;1.63;;;;;;;10.39;83.90;100357.66;5093495;28;20550;-70
2023/03/21 07:54:49;;;;;;;4.53;2.25;;;;;;;10.56;85.36;100365.44;5093487;28;20042;-69
2023/03/21 07:57:15;;;;;;;3.40;1.92;;;;;;;10.83;83.96;100363.38;5081976;28;20096;-69
2023/03/21 07:59:41;;;;;;;1.42;1.13;;;;;;;11.07;83.22;100362.44;5083196;28;20078;-68
2023/03/21 08:02:12;;;;;;;3.60;1.80;;;;;;;11.22;80.16;100366.03;5080613;28;20036;-69
2023/03/21 08:04:37;;;;;;;2.45;1.80;;;;;;;11.47;81.15;100369.38;5082961;28;20034;-69
2023/03/21 08:07:03;;;;;;;1.90;1.40;;;;;;;11.66;80.82;100376.94;5083235;28;20025;-71
2023/03/21 08:09:28;;;;;;;2.35;1.60;;;;;;;12.00;79.68;100372.22;5087312;28;20032;-70
2023/03/21 08:11:54;;;;;;;2.75;1.80;;;;;;;12.07;77.88;100376.69;5093173;28;20027;-70
2023/03/21 08:14:19;;;;;;;2.63;1.63;;;;;;;12.18;77.48;100368.22;5092919;28;20036;-71
2023/03/21 08:16:45;;;;;;;2.03;1.38;;;;;;;12.13;76.50;100375.13;5092844;28;20040;-70
2023/03/21 08:19:10;;;;;;;3.15;1.50;;;;;;;12.27;75.29;100369.00;5092781;28;20393;-70
2023/03/21 08:21:37;;;;;;;2.08;1.70;;;;;;;12.26;74.93;100361.13;5092824;28;20040;-70
2023/03/21 08:24:04;;;;;;;3.80;1.70;;;;;;;12.35;75.13;100368.06;5093664;28;20032;-70
2023/03/21 08:26:31;;;;;;;2.15;1.45;;;;;;;12.40;74.85;100363.84;5094182;28;20118;-69
2023/03/21 08:28:56;;;;;;;1.90;1.40;;;;;;;12.42;74.81;100371.69;5092337;28;20036;-69
2023/03/21 08:31:22;;;;;;;3.85;1.38;;;;;;;12.41;74.09;100365.50;5092707;28;20093;-70
2023/03/21 08:33:52;;;;;;;3.42;1.50;;;;;;;12.56;74.06;100370.03;5092783;28;20081;-70
2023/03/21 08:36:17;;;;;;;3.55;1.38;;;;;;;12.52;71.17;100358.03;5092542;28;20047;-70
2023/03/21 08:38:44;;;;;;;1.65;1.13;;;;;;;12.55;72.66;100366.53;5092427;28;20032;-69
2023/03/21 08:41:10;;;;;;;1.65;1.02;;;;;;;12.70;73.50;100362.00;5092629;28;20043;-70
2023/03/21 08:43:36;;;;;;;1.55;1.20;;;;;;;12.75;76.19;100367.66;5092510;28;20027;-68
2023/03/21 08:46:03;;;;;;;6.30;1.50;;;;;;;12.97;73.46;100365.88;5092323;28;20594;-69
2023/03/21 08:48:28;;;;;;;4.82;1.42;;;;;;;12.92;70.76;100362.13;5092301;28;20032;-69
2023/03/21 08:50:54;;;;;;;1.70;1.25;;;;;;;12.97;69.07;100365.88;5092371;28;20042;-68
2023/03/21 08:53:19;;;;;;;2.10;1.40;;;;;;;12.87;70.01;100356.50;5092429;28;20043;-69
2023/03/21 08:55:45;;;;;;;2.88;1.42;;;;;;;13.02;69.82;100358.13;5092131;28;20052;-70
2023/03/21 08:58:10;;;;;;;1.95;1.42;;;;;;;13.16;71.40;100359.13;5092024;28;20040;-71
2023/03/21 09:00:36;;;;;;;1.27;1.17;;;;;;;13.16;72.89;100359.13;5092366;28;20502;-72
2023/03/21 09:03:03;;;;;;;2.35;1.60;;;;;;;13.38;72.71;100356.53;5092387;28;20429;-69
2023/03/21 09:05:29;;;;;;;2.70;1.58;;;;;;;13.42;72.94;100360.47;5092213;28;20036;-70
2023/03/21 09:07:54;;;;;;;1.88;1.30;;;;;;;13.43;69.77;100357.63;5091927;28;20097;-69
2023/03/21 09:10:21;;;;;;;1.95;1.25;;;;;;;13.21;73.58;100359.44;5092247;28;20047;-69
2023/03/21 09:12:51;;;;;;;2.30;1.53;;;;;;;13.19;72.21;100357.94;5092188;28;20115;-68
2023/03/21 09:15:20;;;;;;;3.05;1.02;;;;;;;13.12;70.44;100351.69;5092125;28;20123;-69
2023/03/21 09:17:48;;;;;;;1.65;1.10;;;;;;;13.19;69.83;100352.59;5091810;28;20024;-68
2023/03/21 09:20:24;;;;;;;2.90;1.48;;;;;;;13.21;70.94;100356.75;5091991;28;20493;-69
2023/03/21 09:22:51;;;;;;;2.63;1.20;;;;;;;13.00;72.81;100354.81;5092149;28;20036;-68
2023/03/21 09:25:18;;;;;;;1.25;1.10;;;;;;;13.11;73.79;100358.06;5091937;28;20469;-68
2023/03/21 09:27:47;;;;;;;3.22;1.50;;;;;;;13.20;71.22;100363.13;5091711;28;20052;-70
2023/03/21 09:30:15;;;;;;;2.90;1.20;;;;;;;13.31;71.24;100359.16;5092128;28;20031;-69
2023/03/21 09:32:41;;;;;;;2.28;1.30;;;;;;;13.40;71.39;100360.69;5090742;28;20101;-69
2023/03/21 09:35:07;;;;;;;1.73;1.30;;;;;;;13.33;72.09;100361.63;5091913;28;20036;-69
2023/03/21 09:37:33;;;;;;;2.00;1.35;;;;;;;13.22;71.13;100363.75;5091609;28;20028;-69
2023/03/21 09:39:59;;;;;;;2.30;1.42;;;;;;;13.21;71.19;100370.13;5091934;28;20042;-70
2023/03/21 09:42:48;;;;;;;2.20;1.53;;;;;;;13.20;71.09;100363.13;5091919;28;20043;-69
2023/03/21 09:45:36;;;;;;;2.53;1.25;;;;;;;13.19;71.06;100368.63;5091907;28;20036;-70
2023/03/21 09:48:06;;;;;;;1.85;1.55;;;;;;;13.23;71.18;100361.91;5091532;28;20063;-70
2023/03/21 09:50:37;;;;;;;3.60;1.65;;;;;;;13.14;72.41;100365.69;5091746;28;20123;-70
2023/03/21 09:53:29;;;;;;;1.77;1.67;;;;;;;13.16;72.94;100363.63;5092029;28;20408;-70
2023/03/21 09:55:55;;;;;;;1.70;1.40;;;;;;;13.11;75.95;100366.91;5091629;28;20453;-69
2023/03/21 09:58:27;;;;;;;3.03;1.48;;;;;;;13.28;72.27;100357.66;5091444;28;20034;-70
2023/03/21 10:01:00;;;;;;;1.95;1.45;;;;;;;13.26;71.49;100362.38;5091672;28;20085;-71
2023/03/21 10:03:30;;;;;;;1.58;1.30;;;;;;;13.25;70.67;100367.91;5091777;28;20032;-70
2023/03/21 10:06:00;;;;;;;2.55;1.55;;;;;;;13.19;71.57;100369.47;5091596;28;20546;-69
2023/03/21 10:08:40;;;;;;;1.90;1.38;;;;;;;13.23;70.72;100367.25;5093706;28;20040;-69
2023/03/21 10:11:21;;;;;;;3.03;1.48;;;;;;;13.25;71.82;100370.59;5095285;28;20079;-70
2023/03/21 10:13:52;;;;;;;1.42;1.20;;;;;;;13.34;71.11;100373.97;5095474;28;20032;-70
2023/03/21 10:16:26;;;;;;;4.53;1.50;;;;;;;13.45;70.79;100368.16;5095324;28;20101;-70
2023/03/21 10:18:54;;;;;;;2.33;1.23;;;;;;;13.44;70.88;100369.16;5093722;28;20123;-70
2023/03/21 10:21:25;;;;;;;3.30;1.45;;;;;;;13.38;67.80;100356.53;5094142;28;20492;-70
2023/03/21 10:23:53;;;;;;;3.08;1.70;;;;;;;13.29;69.78;100353.13;5095311;28;20043;-70
2023/03/21 10:26:21;;;;;;;2.50;1.23;;;;;;;13.35;70.48;100347.03;5095025;28;20039;-70
2023/03/21 10:28:48;;;;;;;1.38;1.15;;;;;;;13.43;68.34;100340.72;5094844;28;20036;-70
2023/03/21 10:31:24;;;;;;;2.22;1.42;;;;;;;13.40;67.92;100341.13;5094994;28;20040;-70
2023/03/21 10:33:51;;;;;;;1.63;1.20;;;;;;;13.46;68.72;100337.69;5095161;28;20077;-70
2023/03/21 10:36:24;;;;;;;1.63;1.27;;;;;;;13.22;68.83;100341.53;5094815;28;20073;-70
2023/03/21 10:38:54;;;;;;;2.95;1.38;;;;;;;13.22;68.77;100337.00;5094644;28;20282;-70
2023/03/21 10:41:20;;;;;;;2.00;1.20;;;;;;;13.20;69.28;100332.84;5094906;28;20424;-70
2023/03/21 10:43:49;;;;;;;1.70;1.30;;;;;;;13.11;70.03;100329.47;5094946;28;20031;-70
2023/03/21 10:46:20;;;;;;;2.22;1.52;;;;;;;13.26;70.24;100324.09;5094683;28;20043;-70
2023/03/21 10:48:51;;;;;;;2.22;1.30;;;;;;;13.12;67.03;100324.94;5094437;28;20143;-69
2023/03/21 10:51:22;;;;;;;2.00;1.35;;;;;;;13.09;65.52;100326.13;5094621;28;20068;-70
2023/03/21 10:54:10;;;;;;;3.58;1.80;;;;;;;13.25;66.73;100323.28;5094763;28;20085;-69
2023/03/21 10:56:55;;;;;;;1.45;1.15;;;;;;;13.37;64.64;100318.25;5094591;28;20186;-70
2023/03/21 10:59:22;;;;;;;1.85;1.35;;;;;;;13.75;66.03;100315.31;5094637;28;20406;-70
2023/03/21 11:01:51;;;;;;;2.45;1.35;;;;;;;13.94;65.94;100320.03;5094599;28;20036;-70
2023/03/21 11:04:24;;;;;;;2.35;1.27;;;;;;;14.29;66.77;100320.09;5094540;28;20020;-71
2023/03/21 11:07:06;;;;;;;1.83;1.35;;;;;;;14.72;64.05;100317.28;5094270;28;20036;-70
2023/03/21 11:09:56;;;;;;;1.67;1.45;;;;;;;15.03;59.75;100314.13;5094370;28;20032;-70
2023/03/21 11:12:32;;;;;;;8.30;1.52;;;;;;;15.01;60.29;100316.19;5094220;28;20456;-71
2023/03/21 11:15:23;;;;;;;2.25;1.15;;;;;;;15.11;59.21;100311.25;5094326;28;20130;-70
2023/03/21 11:17:49;;;;;;;1.65;1.30;;;;;;;15.23;59.44;100314.19;5093931;28;20036;-71
2023/03/21 11:20:17;;;;;;;1.85;1.58;;;;;;;15.19;62.01;100316.44;5094142;28;20540;-72
2023/03/21 11:22:45;;;;;;;2.10;1.40;;;;;;;15.17;58.15;100313.13;5094170;28;20039;-71
2023/03/21 11:25:35;;;;;;;2.80;1.48;;;;;;;15.89;57.20;100303.59;5094036;28;20035;-69
2023/03/21 11:28:07;;;;;;;1.48;1.10;;;;;;;16.88;51.45;100302.63;5093817;28;20028;-70
2023/03/21 11:30:33;;;;;;;2.65;1.55;;;;;;;17.08;50.15;100298.81;5093917;28;20085;-70
2023/03/21 11:33:05;;;;;;;2.35;1.30;;;;;;;17.49;49.31;100292.16;5093896;28;20396;-71
2023/03/21 11:35:38;;;;;;;4.30;1.63;;;;;;;17.57;49.14;100285.69;5093782;28;20086;-70
2023/03/21 11:38:05;;;;;;;2.28;1.08;;;;;;;17.14;48.88;100288.22;5093471;28;20032;-72
2023/03/21 11:40:33;;;;;;;1.60;0.95;;;;;;;17.57;47.77;100286.50;5093740;28;20128;-71
2023/03/21 11:43:00;;;;;;;;;;;;;;;17.54;47.70;100276.19;5094026;28;20027;-71
2023/03/21 11:45:31;;;;;;;1.67;1.10;;;;;;;17.72;49.55;100282.69;5093689;28;19919;-71
2023/03/21 11:47:59;;;;;;;2.75;1.23;;;;;;;17.89;47.60;100276.56;5093228;28;20433;-70
2023/03/21 11:50:36;;;;;;;1.45;1.10;;;;;;;18.50;46.96;100266.81;5093488;28;20082;-70
2023/03/21 11:53:19;;;;;;;;;;;;;;;18.54;47.83;100264.53;5093993;28;20093;-70
2023/03/21 11:56:23;;;;;;;1.92;1.25;;;;;;;19.08;46.83;100260.94;5093421;28;19943;-70
2023/03/21 11:59:12;;;;;;;1.95;1.40;;;;;;;19.22;45.82;100257.00;5093024;28;20035;-71
2023/03/21 12:02:02;;;;;;;1.77;1.38;;;;;;;19.42;42.81;100250.50;5093419;28;20028;-71
2023/03/21 12:04:45;;;;;;;1.25;1.15;;;;;;;19.13;44.64;100253.00;5093317;28;20543;-69
2023/03/21 12:07:46;;;;;;;1.42;1.17;;;;;;;18.99;42.75;100240.75;5092843;28;20043;-69
2023/03/21 12:10:36;;;;;;;1.50;1.30;;;;;;;19.37;43.92;100231.47;5094875;28;20035;-69
2023/03/21 12:13:13;;;;;;;1.50;1.00;;;;;;;19.31;43.78;100235.94;5093148;28;20115;-69
2023/03/21 12:15:50;;;;;;;1.20;1.10;;;;;;;19.12;43.83;100227.06;5093045;28;20401;-70
2023/03/21 12:18:39;;;;;;;1.63;1.20;;;;;;;19.35;42.28;100229.00;5092597;28;20441;-70
2023/03/21 12:21:18;;;;;;;0.95;0.80;;;;;;;19.55;41.55;100219.75;5092944;28;20036;-69
2023/03/21 12:24:05;;;;;;;0.88;0.80;;;;;;;19.60;41.62;100218.03;5092781;28;20036;-70
2023/03/21 12:26:39;;;;;;;0.82;0.80;;;;;;;20.10;41.67;100220.28;5092847;28;20032;-69
2023/03/21 12:29:35;;;;;;;1.15;0.80;;;;;;;19.86;43.61;100205.13;5092635;28;20044;-70
2023/03/21 12:32:29;;;;;;;1.02;0.80;;;;;;;19.33;42.55;100211.38;5092259;28;20043;-70
2023/03/21 12:35:20;;;;;;;1.10;0.85;;;;;;;19.30;44.54;100206.44;5092722;28;20162;-71
2023/03/21 12:38:13;;;;;;;1.58;0.75;;;;;;;18.97;44.36;100197.78;5092481;28;20374;-69
2023/03/21 12:41:06;;;;;;;2.42;0.88;;;;;;;18.72;42.77;100185.50;5092653;28;20501;-70
2023/03/21 12:43:53;;;;;;;1.50;1.08;;;;;;;18.65;44.53;100183.66;5092297;28;20044;-70
2023/03/21 12:46:32;;;;;;;1.10;0.75;;;;;;;18.54;44.50;100192.50;5092588;28;20491;-69
2023/03/21 12:49:03;;;;;;;1.30;1.00;;;;;;;18.85;43.64;100180.72;5092034;28;20089;-69
2023/03/21 12:51:35;;;;;;;0.63;0.60;;;;;;;18.95;42.58;100178.28;5091019;28;20096;-69
2023/03/21 12:54:11;;;;;;;1.67;0.90;;;;;;;19.27;41.42;100172.63;5092371;28;20031;-69
2023/03/21 12:56:49;;;;;;;0.68;0.68;;;;;;;19.57;43.07;100164.44;5092136;28;20511;-69
2023/03/21 12:59:24;;;;;;;0.77;0.77;;;;;;;19.71;43.06;100159.66;5092232;28;20123;-70
2023/03/21 13:01:54;;;;;;;0.80;0.70;;;;;;;19.99;41.82;100145.41;5092383;28;20403;-70
2023/03/21 13:04:52;;;;;;;0.65;0.43;;;;;;;20.27;42.01;100150.88;5092194;28;20040;-70
2023/03/21 13:07:20;;;;;;;0.90;0.77;;;;;;;20.74;41.10;100156.19;5090185;28;20048;-70
2023/03/21 13:09:46;;;;;;;0.50;0.50;;;;;;;20.30;40.74;100155.81;5092221;28;20104;-69
2023/03/21 13:12:24;;;;;;;0.50;0.50;;;;;;;19.92;39.53;100148.25;5092183;28;20130;-70
2023/03/21 13:15:04;;;;;;;0.95;0.60;;;;;;;19.23;42.21;100155.22;5092204;28;20042;-70
2023/03/21 13:17:38;;;;;;;0.70;0.50;;;;;;;19.63;41.08;100154.63;5091801;28;20051;-69
2023/03/21 13:20:25;;;;;;;1.90;0.70;;;;;;;19.59;41.58;100146.16;5092237;28;20366;-70
2023/03/21 13:22:51;;;;;;;1.00;0.60;;;;;;;19.25;43.06;100155.84;5092035;28;20024;-70
2023/03/21 13:25:22;;;;;;;0.45;0.45;;;;;;;19.19;42.24;100152.19;5092031;28;20044;-70
2023/03/21 13:28:01;;;;;;;0.98;0.70;;;;;;;19.23;42.97;100145.28;5091768;28;20082;-69
2023/03/21 13:30:29;;;;;;;1.08;0.70;;;;;;;19.02;43.02;100143.09;5091897;28;20039;-70
2023/03/21 13:33:05;;;;;;;1.33;0.77;;;;;;;18.99;43.96;100146.28;5092192;28;20118;-69
2023/03/21 13:35:37;;;;;;;1.88;1.20;;;;;;;19.23;43.62;100145.28;5091793;28;20035;-70
2023/03/21 13:38:12;;;;;;;0.73;0.70;;;;;;;19.06;43.81;100144.28;5091828;28;20074;-70
2023/03/21 13:40:48;;;;;;;1.42;1.00;;;;;;;18.85;42.93;100136.72;5091942;28;20408;-70
2023/03/21 13:43:41;;;;;;;0.95;0.60;;;;;;;18.91;43.40;100141.22;5094032;28;20032;-70
2023/03/21 13:46:25;;;;;;;1.17;0.60;;;;;;;19.33;43.87;100128.50;5095889;28;20036;-70
2023/03/21 13:49:08;;;;;;;1.02;0.90;;;;;;;19.33;43.15;100133.06;5095597;28;20032;-69
2023/03/21 13:51:43;;;;;;;1.05;0.82;;;;;;;19.11;43.54;100135.50;5095866;28;20047;-69
2023/03/21 13:54:15;;;;;;;1.42;0.68;;;;;;;18.91;44.05;100130.41;5095738;28;20114;-69
2023/03/21 13:56:43;;;;;;;0.73;0.60;;;;;;;19.12;43.86;100127.19;5095900;28;20401;-69
2023/03/21 13:59:10;;;;;;;0.98;0.80;;;;;;;18.96;44.56;100122.44;5095477;28;20102;-69
2023/03/21 14:01:41;;;;;;;0.93;0.55;;;;;;;19.16;44.65;100125.63;5095638;28;20550;-70
2023/03/21 14:04:18;;;;;;;0.85;0.73;;;;;;;19.23;44.16;100112.88;5095624;28;20047;-70
2023/03/21 14:06:50;;;;;;;0.70;0.60;;;;;;;19.14;42.92;100126.94;5095422;28;20058;-68
2023/03/21 14:09:24;;;;;;;0.80;0.70;;;;;;;18.91;45.00;100120.44;5095318;28;20427;-69
2023/03/21 14:11:52;;;;;;;2.38;1.15;;;;;;;18.96;42.13;100109.75;5095368;28;20036;-69
2023/03/21 14:14:20;;;;;;;1.05;0.80;;;;;;;18.61;43.93;100111.50;5095490;28;20031;-69
2023/03/21 14:16:45;;;;;;;1.42;0.90;;;;;;;18.51;44.38;100109.34;5095217;28;20082;-69
2023/03/21 14:19:11;;;;;;;2.00;0.90;;;;;;;18.29;44.47;100105.50;5095194;28;20032;-69
2023/03/21 14:21:44;;;;;;;1.58;0.77;;;;;;;18.03;43.91;100102.09;5095153;28;20032;-69
2023/03/21 14:24:15;;;;;;;1.40;0.90;;;;;;;17.90;45.90;100097.66;5095288;28;20539;-69
2023/03/21 14:26:49;;;;;;;0.88;0.80;;;;;;;17.66;43.95;100095.00;5095122;28;20469;-69
2023/03/21 14:29:28;;;;;;;1.00;0.73;;;;;;;17.65;44.82;100088.78;5095006;28;20493;-69
2023/03/21 14:31:56;;;;;;;0.63;0.63;;;;;;;17.69;45.19;100086.50;5095099;28;20032;-69
2023/03/21 14:34:22;;;;;;;0.60;0.60;;;;;;;17.63;45.28;100091.72;5095121;28;20085;-69
2023/03/21 14:36:48;;;;;;;0.75;0.60;;;;;;;17.33;46.49;100088.88;5094692;28;20024;-69
2023/03/21 14:39:25;;;;;;;1.50;0.80;;;;;;;17.32;45.79;100081.03;5095121;28;20400;-70
2023/03/21 14:41:54;;;;;;;1.52;0.80;;;;;;;17.07;45.94;100075.66;5094907;28;20473;-69
2023/03/21 14:44:26;;;;;;;0.68;0.68;;;;;;;17.22;47.11;100080.72;5094904;28;20123;-69
2023/03/21 14:46:58;;;;;;;0.70;0.68;;;;;;;17.20;46.42;100085.50;5094578;28;20031;-70
2023/03/21 14:49:29;;;;;;;0.88;0.70;;;;;;;17.07;45.98;100091.81;5094697;28;20039;-69
2023/03/21 14:51:58;;;;;;;2.03;0.88;;;;;;;17.13;46.83;100090.94;5094492;28;20085;-69
2023/03/21 14:54:26;;;;;;;0.88;0.70;;;;;;;17.15;47.74;100090.72;5094330;28;20616;-69
2023/03/21 14:56:54;;;;;;;;;;;;;;;16.88;46.42;100088.22;5094808;28;20173;-68
2023/03/21 14:59:24;;;;;;;1.23;0.60;;;;;;;16.89;45.77;100092.59;5094425;28;20377;-68
2023/03/21 15:01:52;;;;;;;1.08;0.73;;;;;;;16.87;47.65;100085.75;5094483;28;20036;-69
2023/03/21 15:04:18;;;;;;;0.65;0.63;;;;;;;16.77;47.82;100091.63;5093355;28;20034;-69
2023/03/21 15:07:00;;;;;;;0.75;0.57;;;;;;;16.83;45.91;100082.69;5094400;28;20028;-68
2023/03/21 15:09:28;;;;;;;0.95;0.50;;;;;;;16.70;44.25;100086.31;5094335;28;20035;-69
2023/03/21 15:11:56;;;;;;;0.55;0.52;;;;;;;16.64;43.99;100087.13;5093101;28;20033;-69
2023/03/21 15:14:34;;;;;;;0.50;0.50;;;;;;;16.46;43.42;100074.41;5094431;28;20438;-70
2023/03/21 15:17:03;;;;;;;0.90;0.70;;;;;;;16.49;43.57;100073.97;5093878;28;20032;-69
2023/03/21 15:19:35;;;;;;;1.85;0.60;;;;;;;16.53;44.00;100077.88;5094052;28;20040;-69
2023/03/21 15:22:25;;;;;;;0.70;0.70;;;;;;;16.59;44.29;100073.50;5093979;28;20456;-69
2023/03/21 15:24:57;;;;;;;0.47;0.35;;;;;;;16.57;44.78;100078.28;5089972;28;20128;-69
2023/03/21 15:27:24;;;;;;;0.70;0.65;;;;;;;16.57;45.12;100072.91;5093590;28;20028;-69
2023/03/21 15:29:52;;;;;;;1.25;0.57;;;;;;;16.56;45.33;100071.22;5093999;28;20036;-68
2023/03/21 15:32:22;;;;;;;0.50;0.50;;;;;;;16.62;44.55;100070.38;5093766;28;20035;-70
2023/03/21 15:34:50;;;;;;;0.82;0.70;;;;;;;16.49;45.03;100070.44;5093845;28;20082;-70
2023/03/21 15:37:21;;;;;;;0.93;0.63;;;;;;;16.45;46.16;100058.50;5093459;28;20079;-69
2023/03/21 15:39:48;;;;;;;1.38;0.80;;;;;;;16.38;44.58;100060.41;5093889;28;20036;-69
2023/03/21 15:42:40;;;;;;;1.08;0.75;;;;;;;16.37;45.11;100054.22;5093691;28;20043;-69
2023/03/21 15:45:25;;;;;;;0.70;0.50;;;;;;;16.28;44.31;100042.03;5093886;28;20035;-69
2023/03/21 15:47:54;;;;;;;1.30;0.73;;;;;;;16.20;44.60;100045.00;5093234;28;20032;-69
2023/03/21 15:50:22;;;;;;;1.48;0.80;;;;;;;16.17;44.81;100034.66;5093639;28;20036;-69
2023/03/21 15:52:49;;;;;;;0.68;0.50;;;;;;;16.13;44.69;100036.97;5093376;28;20121;-69
2023/03/21 15:55:25;;;;;;;0.80;0.80;;;;;;;16.08;44.69;100035.94;5093530;28;20063;-69
2023/03/21 15:57:53;;;;;;;2.35;0.80;;;;;;;16.13;45.35;100036.13;5093137;28;20036;-69
2023/03/21 16:00:30;;;;;;;0.50;0.50;;;;;;;16.10;46.46;100039.25;5093427;28;20545;-69
2023/03/21 16:02:59;;;;;;;1.50;0.70;;;;;;;16.04;45.29;100034.72;5093435;28;20031;-69
2023/03/21 16:05:30;;;;;;;1.00;0.60;;;;;;;15.94;44.86;100032.50;5092379;28;20046;-69
2023/03/21 16:08:26;;;;;;;0.40;0.40;;;;;;;15.90;45.63;100026.72;5092922;28;20043;-69
2023/03/21 16:10:52;;;;;;;1.05;0.80;;;;;;;15.85;45.09;100020.38;5092572;28;20044;-69
2023/03/21 16:13:17;;;;;;;0.85;0.60;;;;;;;15.75;45.20;100015.44;5093155;28;20401;-70
2023/03/21 16:15:43;;;;;;;1.42;0.90;;;;;;;15.74;45.81;100011.09;5092961;28;20043;-69
2023/03/21 16:18:13;;;;;;;0.93;0.57;;;;;;;15.73;45.82;100010.28;5092606;28;20147;-69
2023/03/21 16:20:41;;;;;;;0.80;0.60;;;;;;;15.70;46.57;100017.91;5092929;28;20062;-69
2023/03/21 16:23:10;;;;;;;0.73;0.52;;;;;;;15.66;47.63;100036.34;5092965;28;20024;-69
2023/03/21 16:25:36;;;;;;;1.90;1.05;;;;;;;15.66;48.88;100033.66;5092912;28;20040;-69
2023/03/21 16:28:01;;;;;;;1.50;0.73;;;;;;;15.61;50.08;100038.78;5092648;28;20058;-69
2023/03/21 16:30:27;;;;;;;0.88;0.85;;;;;;;15.54;50.12;100037.16;5092857;28;20492;-69
2023/03/21 16:32:52;;;;;;;1.23;0.60;;;;;;;15.48;49.13;100033.44;5092709;28;20101;-69
2023/03/21 16:35:18;;;;;;;1.10;1.00;;;;;;;15.43;48.86;100020.66;5092796;28;20040;-70
2023/03/21 16:37:45;;;;;;;1.45;0.98;;;;;;;15.44;49.08;100024.16;5092280;28;20063;-70
2023/03/21 16:40:33;;;;;;;1.30;0.90;;;;;;;15.37;48.99;100021.50;5092776;28;20077;-70
2023/03/21 16:42:58;;;;;;;1.63;0.82;;;;;;;15.32;50.09;100034.75;5092453;28;20043;-70
2023/03/21 16:45:23;;;;;;;1.08;0.68;;;;;;;15.25;50.40;100023.16;5092555;28;20119;-70
2023/03/21 16:47:49;;;;;;;0.88;0.68;;;;;;;15.24;50.62;100020.69;5092187;28;20134;-70
2023/03/21 16:50:21;;;;;;;1.90;0.95;;;;;;;15.18;51.14;100020.50;5089363;28;20032;-69
2023/03/21 16:52:46;;;;;;;1.00;0.80;;;;;;;15.14;51.27;100027.31;5092341;28;20123;-70
2023/03/21 16:55:12;;;;;;;1.17;1.00;;;;;;;15.13;51.87;100019.50;5092443;28;20039;-69
2023/03/21 16:57:38;;;;;;;0.88;0.73;;;;;;;15.10;52.33;100019.88;5092335;28;20040;-70
2023/03/21 17:00:10;;;;;;;1.50;0.98;;;;;;;15.03;52.54;100027.13;5092349;28;20040;-70
2023/03/21 17:02:35;;;;;;;1.48;0.90;;;;;;;14.99;52.03;100017.81;5092345;28;20467;-70
2023/03/21 17:05:02;;;;;;;1.10;0.95;;;;;;;14.98;52.48;100027.72;5092373;28;20057;-70
2023/03/21 17:07:28;;;;;;;0.70;0.70;;;;;;;14.94;52.53;100039.94;5091876;28;20036;-69
2023/03/21 17:09:53;;;;;;;1.17;0.65;;;;;;;14.92;52.59;100039.28;5092211;28;20113;-69